METAR Data
IDs: Format: Raw Decoded Include TAF

Data at: 0113 UTC 01 Mar 2021

KYIP 010053Z 25014G19KT 10SM SCT026 BKN041 OVC060 14/09 A2966 RMK AO2 SLP042 T01390094 $